sensor_id;sensor_type;location;lat;lon;timestamp;P1;durP1;ratioP1;P2;durP2;ratioP2
42118;SDS011;27783;42.782;23.274;2023-05-02T00:00:07;5.55;;;5.15;;
42118;SDS011;27783;42.782;23.274;2023-05-02T00:02:34;5.65;;;4.88;;
42118;SDS011;27783;42.782;23.274;2023-05-02T00:05:00;6.43;;;5.82;;
42118;SDS011;27783;42.782;23.274;2023-05-02T00:07:25;6.05;;;5.55;;
42118;SDS011;27783;42.782;23.274;2023-05-02T00:09:51;5.85;;;5.25;;
42118;SDS011;27783;42.782;23.274;2023-05-02T00:12:16;6.70;;;6.10;;
42118;SDS011;27783;42.782;23.274;2023-05-02T00:14:42;7.53;;;6.75;;
42118;SDS011;27783;42.782;23.274;2023-05-02T00:17:07;6.45;;;5.85;;
42118;SDS011;27783;42.782;23.274;2023-05-02T00:19:36;5.55;;;5.05;;
42118;SDS011;27783;42.782;23.274;2023-05-02T00:22:03;6.43;;;4.63;;
42118;SDS011;27783;42.782;23.274;2023-05-02T00:24:28;6.35;;;5.78;;
42118;SDS011;27783;42.782;23.274;2023-05-02T00:26:54;5.40;;;4.85;;
42118;SDS011;27783;42.782;23.274;2023-05-02T00:29:19;4.97;;;4.57;;
42118;SDS011;27783;42.782;23.274;2023-05-02T00:31:45;5.38;;;4.95;;
42118;SDS011;27783;42.782;23.274;2023-05-02T00:34:10;6.65;;;4.95;;
42118;SDS011;27783;42.782;23.274;2023-05-02T00:36:35;6.07;;;5.53;;
42118;SDS011;27783;42.782;23.274;2023-05-02T00:39:01;6.15;;;5.55;;
42118;SDS011;27783;42.782;23.274;2023-05-02T00:41:26;5.10;;;4.70;;
42118;SDS011;27783;42.782;23.274;2023-05-02T00:43:52;6.53;;;5.70;;
42118;SDS011;27783;42.782;23.274;2023-05-02T00:46:17;5.88;;;5.30;;
42118;SDS011;27783;42.782;23.274;2023-05-02T00:48:42;5.45;;;4.95;;
42118;SDS011;27783;42.782;23.274;2023-05-02T00:51:09;6.47;;;5.88;;
42118;SDS011;27783;42.782;23.274;2023-05-02T00:53:36;7.47;;;5.00;;
42118;SDS011;27783;42.782;23.274;2023-05-02T00:56:02;5.70;;;4.90;;
42118;SDS011;27783;42.782;23.274;2023-05-02T00:58:27;5.85;;;5.32;;
42118;SDS011;27783;42.782;23.274;2023-05-02T01:06:09;6.28;;;5.70;;
42118;SDS011;27783;42.782;23.274;2023-05-02T01:11:34;6.38;;;5.35;;
42118;SDS011;27783;42.782;23.274;2023-05-02T01:14:01;8.13;;;6.68;;
42118;SDS011;27783;42.782;23.274;2023-05-02T01:16:30;5.75;;;5.25;;
42118;SDS011;27783;42.782;23.274;2023-05-02T01:18:57;7.50;;;5.97;;
42118;SDS011;27783;42.782;23.274;2023-05-02T01:21:24;7.63;;;6.25;;
42118;SDS011;27783;42.782;23.274;2023-05-02T01:23:56;6.22;;;5.63;;
42118;SDS011;27783;42.782;23.274;2023-05-02T01:26:42;7.10;;;6.55;;
42118;SDS011;27783;42.782;23.274;2023-05-02T01:29:14;8.52;;;6.65;;
42118;SDS011;27783;42.782;23.274;2023-05-02T01:31:43;6.28;;;5.68;;
42118;SDS011;27783;42.782;23.274;2023-05-02T01:34:12;6.15;;;5.65;;
42118;SDS011;27783;42.782;23.274;2023-05-02T01:36:39;7.55;;;6.95;;
42118;SDS011;27783;42.782;23.274;2023-05-02T01:39:08;7.15;;;6.30;;
42118;SDS011;27783;42.782;23.274;2023-05-02T01:41:36;7.53;;;6.82;;
42118;SDS011;27783;42.782;23.274;2023-05-02T01:44:03;7.00;;;6.45;;
42118;SDS011;27783;42.782;23.274;2023-05-02T01:46:32;6.82;;;6.22;;
42118;SDS011;27783;42.782;23.274;2023-05-02T01:49:04;5.82;;;5.32;;
42118;SDS011;27783;42.782;23.274;2023-05-02T01:51:32;6.88;;;6.03;;
42118;SDS011;27783;42.782;23.274;2023-05-02T01:54:00;6.85;;;6.25;;
42118;SDS011;27783;42.782;23.274;2023-05-02T01:59:09;6.78;;;6.15;;
42118;SDS011;27783;42.782;23.274;2023-05-02T02:01:36;6.45;;;5.85;;
42118;SDS011;27783;42.782;23.274;2023-05-02T02:04:04;8.85;;;6.03;;
42118;SDS011;27783;42.782;23.274;2023-05-02T02:06:31;7.20;;;6.50;;
42118;SDS011;27783;42.782;23.274;2023-05-02T02:08:57;7.38;;;6.68;;
42118;SDS011;27783;42.782;23.274;2023-05-02T02:11:26;7.03;;;6.32;;
42118;SDS011;27783;42.782;23.274;2023-05-02T02:14:09;8.93;;;8.20;;
42118;SDS011;27783;42.782;23.274;2023-05-02T02:16:41;8.88;;;8.05;;
42118;SDS011;27783;42.782;23.274;2023-05-02T02:19:09;9.63;;;7.40;;
42118;SDS011;27783;42.782;23.274;2023-05-02T02:21:36;11.20;;;8.18;;
42118;SDS011;27783;42.782;23.274;2023-05-02T02:24:05;8.27;;;7.57;;
42118;SDS011;27783;42.782;23.274;2023-05-02T02:26:31;7.82;;;7.22;;
42118;SDS011;27783;42.782;23.274;2023-05-02T02:29:01;8.15;;;7.45;;
42118;SDS011;27783;42.782;23.274;2023-05-02T02:31:31;8.25;;;7.40;;
42118;SDS011;27783;42.782;23.274;2023-05-02T02:33:57;8.82;;;8.02;;
42118;SDS011;27783;42.782;23.274;2023-05-02T02:36:25;8.75;;;8.05;;
42118;SDS011;27783;42.782;23.274;2023-05-02T02:41:49;9.18;;;8.40;;
42118;SDS011;27783;42.782;23.274;2023-05-02T02:52:59;8.25;;;7.55;;
42118;SDS011;27783;42.782;23.274;2023-05-02T02:55:39;9.43;;;8.50;;
42118;SDS011;27783;42.782;23.274;2023-05-02T02:58:10;9.43;;;8.43;;
42118;SDS011;27783;42.782;23.274;2023-05-02T03:03:10;8.82;;;8.02;;
42118;SDS011;27783;42.782;23.274;2023-05-02T03:05:39;14.10;;;8.23;;
42118;SDS011;27783;42.782;23.274;2023-05-02T03:08:05;8.15;;;7.50;;
42118;SDS011;27783;42.782;23.274;2023-05-02T03:10:31;8.32;;;7.63;;
42118;SDS011;27783;42.782;23.274;2023-05-02T03:12:57;10.02;;;9.23;;
42118;SDS011;27783;42.782;23.274;2023-05-02T03:18:04;9.00;;;8.25;;
42118;SDS011;27783;42.782;23.274;2023-05-02T03:20:30;10.23;;;9.32;;
42118;SDS011;27783;42.782;23.274;2023-05-02T03:22:55;9.43;;;8.52;;
42118;SDS011;27783;42.782;23.274;2023-05-02T03:25:23;12.07;;;10.85;;
42118;SDS011;27783;42.782;23.274;2023-05-02T03:27:49;10.07;;;9.13;;
42118;SDS011;27783;42.782;23.274;2023-05-02T03:30:14;9.60;;;8.48;;
42118;SDS011;27783;42.782;23.274;2023-05-02T03:32:40;10.60;;;9.50;;
42118;SDS011;27783;42.782;23.274;2023-05-02T03:35:05;9.77;;;8.88;;
42118;SDS011;27783;42.782;23.274;2023-05-02T03:37:32;9.25;;;8.35;;
42118;SDS011;27783;42.782;23.274;2023-05-02T03:39:58;10.63;;;9.60;;
42118;SDS011;27783;42.782;23.274;2023-05-02T03:42:23;9.85;;;9.05;;
42118;SDS011;27783;42.782;23.274;2023-05-02T03:44:51;10.85;;;9.95;;
42118;SDS011;27783;42.782;23.274;2023-05-02T03:47:17;10.48;;;9.63;;
42118;SDS011;27783;42.782;23.274;2023-05-02T03:49:43;9.70;;;8.80;;
42118;SDS011;27783;42.782;23.274;2023-05-02T03:52:08;10.38;;;9.45;;
42118;SDS011;27783;42.782;23.274;2023-05-02T03:54:33;9.90;;;9.10;;
42118;SDS011;27783;42.782;23.274;2023-05-02T03:56:59;19.48;;;10.48;;
42118;SDS011;27783;42.782;23.274;2023-05-02T03:59:25;10.20;;;9.18;;
42118;SDS011;27783;42.782;23.274;2023-05-02T04:01:51;10.82;;;9.93;;
42118;SDS011;27783;42.782;23.274;2023-05-02T04:04:16;10.57;;;9.57;;
42118;SDS011;27783;42.782;23.274;2023-05-02T04:06:42;9.65;;;8.82;;
42118;SDS011;27783;42.782;23.274;2023-05-02T04:09:07;9.23;;;8.52;;
42118;SDS011;27783;42.782;23.274;2023-05-02T04:11:33;8.68;;;7.97;;
42118;SDS011;27783;42.782;23.274;2023-05-02T04:13:58;10.02;;;9.23;;
42118;SDS011;27783;42.782;23.274;2023-05-02T04:16:24;8.45;;;7.75;;
42118;SDS011;27783;42.782;23.274;2023-05-02T04:18:49;9.85;;;9.02;;
42118;SDS011;27783;42.782;23.274;2023-05-02T04:21:15;8.60;;;7.80;;
42118;SDS011;27783;42.782;23.274;2023-05-02T04:23:40;13.38;;;8.68;;
42118;SDS011;27783;42.782;23.274;2023-05-02T04:26:06;8.48;;;7.75;;
42118;SDS011;27783;42.782;23.274;2023-05-02T04:28:31;8.50;;;7.43;;
42118;SDS011;27783;42.782;23.274;2023-05-02T04:30:57;8.55;;;7.53;;
42118;SDS011;27783;42.782;23.274;2023-05-02T04:33:25;8.65;;;7.85;;
42118;SDS011;27783;42.782;23.274;2023-05-02T04:35:50;9.27;;;8.38;;
42118;SDS011;27783;42.782;23.274;2023-05-02T04:38:16;9.88;;;8.73;;
42118;SDS011;27783;42.782;23.274;2023-05-02T04:40:42;8.93;;;8.13;;
42118;SDS011;27783;42.782;23.274;2023-05-02T04:43:07;8.10;;;7.40;;
42118;SDS011;27783;42.782;23.274;2023-05-02T04:45:36;9.38;;;8.45;;
42118;SDS011;27783;42.782;23.274;2023-05-02T04:48:02;8.68;;;8.02;;
42118;SDS011;27783;42.782;23.274;2023-05-02T04:50:27;8.82;;;8.07;;
42118;SDS011;27783;42.782;23.274;2023-05-02T04:52:53;8.30;;;7.47;;
42118;SDS011;27783;42.782;23.274;2023-05-02T04:55:19;8.90;;;8.18;;
42118;SDS011;27783;42.782;23.274;2023-05-02T04:57:45;8.15;;;7.53;;
42118;SDS011;27783;42.782;23.274;2023-05-02T05:00:10;8.25;;;7.55;;
42118;SDS011;27783;42.782;23.274;2023-05-02T05:02:36;7.25;;;6.40;;
42118;SDS011;27783;42.782;23.274;2023-05-02T05:05:03;7.53;;;6.97;;
42118;SDS011;27783;42.782;23.274;2023-05-02T05:07:29;7.18;;;6.57;;
42118;SDS011;27783;42.782;23.274;2023-05-02T05:09:54;6.13;;;5.63;;
42118;SDS011;27783;42.782;23.274;2023-05-02T05:12:20;6.70;;;6.20;;
42118;SDS011;27783;42.782;23.274;2023-05-02T05:14:45;6.55;;;6.00;;
42118;SDS011;27783;42.782;23.274;2023-05-02T05:17:12;6.82;;;6.15;;
42118;SDS011;27783;42.782;23.274;2023-05-02T05:19:38;6.75;;;6.13;;
42118;SDS011;27783;42.782;23.274;2023-05-02T05:22:03;7.15;;;6.45;;
42118;SDS011;27783;42.782;23.274;2023-05-02T05:24:28;5.38;;;4.97;;
42118;SDS011;27783;42.782;23.274;2023-05-02T05:26:54;6.13;;;5.63;;
42118;SDS011;27783;42.782;23.274;2023-05-02T05:29:19;5.53;;;5.13;;
42118;SDS011;27783;42.782;23.274;2023-05-02T05:31:45;6.22;;;5.10;;
42118;SDS011;27783;42.782;23.274;2023-05-02T05:34:10;6.30;;;5.35;;
42118;SDS011;27783;42.782;23.274;2023-05-02T05:36:37;6.38;;;5.68;;
42118;SDS011;27783;42.782;23.274;2023-05-02T05:39:04;6.10;;;5.18;;
42118;SDS011;27783;42.782;23.274;2023-05-02T05:41:29;5.75;;;5.22;;
42118;SDS011;27783;42.782;23.274;2023-05-02T05:43:55;7.75;;;4.90;;
42118;SDS011;27783;42.782;23.274;2023-05-02T05:46:20;4.93;;;4.60;;
42118;SDS011;27783;42.782;23.274;2023-05-02T05:48:46;5.05;;;4.55;;
42118;SDS011;27783;42.782;23.274;2023-05-02T05:51:11;4.85;;;4.45;;
42118;SDS011;27783;42.782;23.274;2023-05-02T05:53:36;4.85;;;4.45;;
42118;SDS011;27783;42.782;23.274;2023-05-02T05:56:11;5.22;;;4.00;;
42118;SDS011;27783;42.782;23.274;2023-05-02T05:58:37;3.95;;;3.65;;
42118;SDS011;27783;42.782;23.274;2023-05-02T06:01:03;4.10;;;3.80;;
42118;SDS011;27783;42.782;23.274;2023-05-02T06:03:29;5.25;;;4.75;;
42118;SDS011;27783;42.782;23.274;2023-05-02T06:05:54;4.05;;;3.70;;
42118;SDS011;27783;42.782;23.274;2023-05-02T06:08:20;3.50;;;3.08;;
42118;SDS011;27783;42.782;23.274;2023-05-02T06:10:45;3.42;;;2.70;;
42118;SDS011;27783;42.782;23.274;2023-05-02T06:13:11;4.18;;;3.05;;
42118;SDS011;27783;42.782;23.274;2023-05-02T06:15:36;3.78;;;3.00;;
42118;SDS011;27783;42.782;23.274;2023-05-02T06:18:03;4.25;;;3.15;;
42118;SDS011;27783;42.782;23.274;2023-05-02T06:20:28;3.10;;;2.80;;
42118;SDS011;27783;42.782;23.274;2023-05-02T06:22:54;3.67;;;2.75;;
42118;SDS011;27783;42.782;23.274;2023-05-02T06:25:19;4.43;;;2.60;;
42118;SDS011;27783;42.782;23.274;2023-05-02T06:27:45;2.40;;;2.13;;
42118;SDS011;27783;42.782;23.274;2023-05-02T06:30:10;3.03;;;2.45;;
42118;SDS011;27783;42.782;23.274;2023-05-02T06:32:36;5.72;;;3.35;;
42118;SDS011;27783;42.782;23.274;2023-05-02T06:35:01;6.72;;;3.05;;
42118;SDS011;27783;42.782;23.274;2023-05-02T06:37:26;4.32;;;2.72;;
42118;SDS011;27783;42.782;23.274;2023-05-02T06:39:52;5.07;;;2.55;;
42118;SDS011;27783;42.782;23.274;2023-05-02T06:42:17;3.28;;;2.63;;
42118;SDS011;27783;42.782;23.274;2023-05-02T06:44:43;3.17;;;2.10;;
42118;SDS011;27783;42.782;23.274;2023-05-02T06:47:08;3.10;;;2.45;;
42118;SDS011;27783;42.782;23.274;2023-05-02T06:49:33;4.30;;;2.17;;
42118;SDS011;27783;42.782;23.274;2023-05-02T06:51:59;4.47;;;2.92;;
42118;SDS011;27783;42.782;23.274;2023-05-02T06:54:24;4.72;;;2.45;;
42118;SDS011;27783;42.782;23.274;2023-05-02T06:56:50;3.65;;;2.80;;
42118;SDS011;27783;42.782;23.274;2023-05-02T06:59:15;5.05;;;2.55;;
42118;SDS011;27783;42.782;23.274;2023-05-02T07:01:42;2.92;;;2.20;;
42118;SDS011;27783;42.782;23.274;2023-05-02T07:04:07;3.58;;;1.85;;
42118;SDS011;27783;42.782;23.274;2023-05-02T07:06:33;3.30;;;1.92;;
42118;SDS011;27783;42.782;23.274;2023-05-02T07:08:58;3.13;;;2.17;;
42118;SDS011;27783;42.782;23.274;2023-05-02T07:11:24;2.40;;;1.65;;
42118;SDS011;27783;42.782;23.274;2023-05-02T07:13:51;2.80;;;2.30;;
42118;SDS011;27783;42.782;23.274;2023-05-02T07:16:17;4.18;;;2.28;;
42118;SDS011;27783;42.782;23.274;2023-05-02T07:18:42;2.80;;;2.05;;
42118;SDS011;27783;42.782;23.274;2023-05-02T07:21:09;1.67;;;1.57;;
42118;SDS011;27783;42.782;23.274;2023-05-02T07:23:35;1.95;;;1.50;;
42118;SDS011;27783;42.782;23.274;2023-05-02T07:26:01;3.00;;;1.52;;
42118;SDS011;27783;42.782;23.274;2023-05-02T07:28:26;6.97;;;2.03;;
42118;SDS011;27783;42.782;23.274;2023-05-02T07:30:51;5.55;;;1.80;;
42118;SDS011;27783;42.782;23.274;2023-05-02T07:33:17;3.17;;;1.80;;
42118;SDS011;27783;42.782;23.274;2023-05-02T07:35:42;2.85;;;1.73;;
42118;SDS011;27783;42.782;23.274;2023-05-02T07:38:09;5.65;;;1.85;;
42118;SDS011;27783;42.782;23.274;2023-05-02T07:40:36;5.43;;;2.00;;
42118;SDS011;27783;42.782;23.274;2023-05-02T07:43:02;4.80;;;2.50;;
42118;SDS011;27783;42.782;23.274;2023-05-02T07:45:27;2.83;;;1.80;;
42118;SDS011;27783;42.782;23.274;2023-05-02T07:47:53;3.42;;;1.83;;
42118;SDS011;27783;42.782;23.274;2023-05-02T07:50:18;3.00;;;1.50;;
42118;SDS011;27783;42.782;23.274;2023-05-02T07:52:44;2.95;;;1.30;;
42118;SDS011;27783;42.782;23.274;2023-05-02T07:55:09;1.45;;;1.30;;
42118;SDS011;27783;42.782;23.274;2023-05-02T07:57:34;2.17;;;1.25;;
42118;SDS011;27783;42.782;23.274;2023-05-02T08:00:00;2.60;;;1.58;;
42118;SDS011;27783;42.782;23.274;2023-05-02T08:02:25;2.00;;;1.35;;
42118;SDS011;27783;42.782;23.274;2023-05-02T08:04:51;3.60;;;1.70;;
42118;SDS011;27783;42.782;23.274;2023-05-02T08:07:16;2.10;;;1.33;;
42118;SDS011;27783;42.782;23.274;2023-05-02T08:09:42;2.03;;;1.40;;
42118;SDS011;27783;42.782;23.274;2023-05-02T08:12:09;2.35;;;1.73;;
42118;SDS011;27783;42.782;23.274;2023-05-02T08:14:34;3.35;;;1.60;;
42118;SDS011;27783;42.782;23.274;2023-05-02T08:17:00;1.50;;;1.40;;
42118;SDS011;27783;42.782;23.274;2023-05-02T08:19:25;1.73;;;1.40;;
42118;SDS011;27783;42.782;23.274;2023-05-02T08:21:54;1.70;;;1.45;;
42118;SDS011;27783;42.782;23.274;2023-05-02T08:24:20;4.40;;;1.65;;
42118;SDS011;27783;42.782;23.274;2023-05-02T08:26:45;1.80;;;1.08;;
42118;SDS011;27783;42.782;23.274;2023-05-02T08:29:11;2.58;;;1.95;;
42118;SDS011;27783;42.782;23.274;2023-05-02T08:31:37;2.35;;;1.58;;
42118;SDS011;27783;42.782;23.274;2023-05-02T08:34:04;1.67;;;1.33;;
42118;SDS011;27783;42.782;23.274;2023-05-02T08:36:29;1.65;;;1.13;;
42118;SDS011;27783;42.782;23.274;2023-05-02T08:38:56;5.93;;;1.80;;
42118;SDS011;27783;42.782;23.274;2023-05-02T08:41:21;1.92;;;1.50;;
42118;SDS011;27783;42.782;23.274;2023-05-02T08:43:48;2.47;;;1.60;;
42118;SDS011;27783;42.782;23.274;2023-05-02T08:46:14;2.08;;;1.38;;
42118;SDS011;27783;42.782;23.274;2023-05-02T08:48:41;2.78;;;1.50;;
42118;SDS011;27783;42.782;23.274;2023-05-02T08:51:08;7.57;;;1.67;;
42118;SDS011;27783;42.782;23.274;2023-05-02T08:53:36;1.95;;;1.45;;
42118;SDS011;27783;42.782;23.274;2023-05-02T08:56:02;1.65;;;1.35;;
42118;SDS011;27783;42.782;23.274;2023-05-02T08:58:28;2.22;;;1.50;;
42118;SDS011;27783;42.782;23.274;2023-05-02T09:00:58;1.10;;;1.00;;
42118;SDS011;27783;42.782;23.274;2023-05-02T09:03:30;1.63;;;1.30;;
42118;SDS011;27783;42.782;23.274;2023-05-02T09:08:41;4.13;;;1.70;;
42118;SDS011;27783;42.782;23.274;2023-05-02T09:11:08;2.80;;;1.40;;
42118;SDS011;27783;42.782;23.274;2023-05-02T09:13:39;2.83;;;1.20;;
42118;SDS011;27783;42.782;23.274;2023-05-02T09:16:07;2.10;;;1.30;;
42118;SDS011;27783;42.782;23.274;2023-05-02T09:18:37;2.42;;;1.13;;
42118;SDS011;27783;42.782;23.274;2023-05-02T09:21:05;1.63;;;1.02;;
42118;SDS011;27783;42.782;23.274;2023-05-02T09:23:37;1.52;;;1.15;;
42118;SDS011;27783;42.782;23.274;2023-05-02T09:26:10;1.80;;;1.33;;
42118;SDS011;27783;42.782;23.274;2023-05-02T09:28:37;1.17;;;1.08;;
42118;SDS011;27783;42.782;23.274;2023-05-02T09:31:05;2.67;;;1.50;;
42118;SDS011;27783;42.782;23.274;2023-05-02T09:33:32;1.93;;;1.10;;
42118;SDS011;27783;42.782;23.274;2023-05-02T09:35:58;3.17;;;1.50;;
42118;SDS011;27783;42.782;23.274;2023-05-02T09:38:23;2.53;;;1.17;;
42118;SDS011;27783;42.782;23.274;2023-05-02T09:40:53;1.83;;;1.35;;
42118;SDS011;27783;42.782;23.274;2023-05-02T09:43:21;2.60;;;1.20;;
42118;SDS011;27783;42.782;23.274;2023-05-02T09:45:56;2.45;;;1.30;;
42118;SDS011;27783;42.782;23.274;2023-05-02T09:48:22;2.08;;;1.25;;
42118;SDS011;27783;42.782;23.274;2023-05-02T09:50:47;5.03;;;1.30;;
42118;SDS011;27783;42.782;23.274;2023-05-02T09:53:13;1.40;;;1.30;;
42118;SDS011;27783;42.782;23.274;2023-05-02T09:55:38;3.40;;;1.27;;
42118;SDS011;27783;42.782;23.274;2023-05-02T09:58:04;2.08;;;1.17;;
42118;SDS011;27783;42.782;23.274;2023-05-02T10:00:39;1.92;;;1.48;;
42118;SDS011;27783;42.782;23.274;2023-05-02T10:03:06;2.90;;;1.15;;
42118;SDS011;27783;42.782;23.274;2023-05-02T10:05:33;2.25;;;1.20;;
42118;SDS011;27783;42.782;23.274;2023-05-02T10:08:02;1.92;;;1.23;;
42118;SDS011;27783;42.782;23.274;2023-05-02T10:10:29;1.40;;;0.85;;
42118;SDS011;27783;42.782;23.274;2023-05-02T10:12:58;4.93;;;1.48;;
42118;SDS011;27783;42.782;23.274;2023-05-02T10:15:25;1.50;;;1.07;;
42118;SDS011;27783;42.782;23.274;2023-05-02T10:17:53;2.50;;;1.42;;
42118;SDS011;27783;42.782;23.274;2023-05-02T10:20:22;2.35;;;1.17;;
42118;SDS011;27783;42.782;23.274;2023-05-02T10:22:52;2.35;;;1.00;;
42118;SDS011;27783;42.782;23.274;2023-05-02T10:25:18;2.05;;;1.50;;
42118;SDS011;27783;42.782;23.274;2023-05-02T10:27:43;4.60;;;0.93;;
42118;SDS011;27783;42.782;23.274;2023-05-02T10:30:09;1.35;;;1.08;;
42118;SDS011;27783;42.782;23.274;2023-05-02T10:32:37;4.45;;;1.15;;
42118;SDS011;27783;42.782;23.274;2023-05-02T10:35:03;4.50;;;1.50;;
42118;SDS011;27783;42.782;23.274;2023-05-02T10:37:30;4.55;;;1.33;;
42118;SDS011;27783;42.782;23.274;2023-05-02T10:39:58;1.85;;;1.15;;
42118;SDS011;27783;42.782;23.274;2023-05-02T10:42:24;1.90;;;1.10;;
42118;SDS011;27783;42.782;23.274;2023-05-02T10:44:51;1.48;;;1.00;;
42118;SDS011;27783;42.782;23.274;2023-05-02T10:47:21;2.40;;;1.17;;
42118;SDS011;27783;42.782;23.274;2023-05-02T10:49:52;3.05;;;1.30;;
42118;SDS011;27783;42.782;23.274;2023-05-02T10:52:25;2.00;;;1.10;;
42118;SDS011;27783;42.782;23.274;2023-05-02T10:54:51;2.43;;;1.10;;
42118;SDS011;27783;42.782;23.274;2023-05-02T10:57:53;1.83;;;1.27;;
42118;SDS011;27783;42.782;23.274;2023-05-02T11:00:25;1.25;;;0.88;;
42118;SDS011;27783;42.782;23.274;2023-05-02T11:02:53;1.98;;;1.10;;
42118;SDS011;27783;42.782;23.274;2023-05-02T11:05:20;2.03;;;1.42;;
42118;SDS011;27783;42.782;23.274;2023-05-02T11:15:58;1.40;;;0.93;;
42118;SDS011;27783;42.782;23.274;2023-05-02T11:18:05;1.80;;;0.98;;
42118;SDS011;27783;42.782;23.274;2023-05-02T11:20:35;1.58;;;0.95;;
42118;SDS011;27783;42.782;23.274;2023-05-02T11:25:43;2.65;;;1.27;;
42118;SDS011;27783;42.782;23.274;2023-05-02T11:31:07;1.38;;;0.77;;
42118;SDS011;27783;42.782;23.274;2023-05-02T11:33:34;1.80;;;1.13;;
42118;SDS011;27783;42.782;23.274;2023-05-02T11:36:00;2.85;;;0.90;;
42118;SDS011;27783;42.782;23.274;2023-05-02T11:38:33;2.17;;;1.10;;
42118;SDS011;27783;42.782;23.274;2023-05-02T11:41:02;2.00;;;1.25;;
42118;SDS011;27783;42.782;23.274;2023-05-02T11:43:30;2.30;;;0.93;;
42118;SDS011;27783;42.782;23.274;2023-05-02T11:45:56;3.42;;;0.85;;
42118;SDS011;27783;42.782;23.274;2023-05-02T11:48:23;0.98;;;0.80;;
42118;SDS011;27783;42.782;23.274;2023-05-02T11:50:58;0.73;;;0.73;;
42118;SDS011;27783;42.782;23.274;2023-05-02T11:53:29;6.03;;;1.30;;
42118;SDS011;27783;42.782;23.274;2023-05-02T11:55:56;2.60;;;1.20;;
42118;SDS011;27783;42.782;23.274;2023-05-02T11:58:25;1.40;;;1.02;;
42118;SDS011;27783;42.782;23.274;2023-05-02T12:00:57;4.32;;;1.08;;
42118;SDS011;27783;42.782;23.274;2023-05-02T12:03:27;3.10;;;0.97;;
42118;SDS011;27783;42.782;23.274;2023-05-02T12:06:09;2.05;;;1.30;;
42118;SDS011;27783;42.782;23.274;2023-05-02T12:08:35;1.58;;;0.93;;
42118;SDS011;27783;42.782;23.274;2023-05-02T12:11:01;6.28;;;1.88;;
42118;SDS011;27783;42.782;23.274;2023-05-02T12:13:26;1.10;;;0.82;;
42118;SDS011;27783;42.782;23.274;2023-05-02T12:15:52;1.48;;;1.02;;
42118;SDS011;27783;42.782;23.274;2023-05-02T12:18:19;2.00;;;1.10;;
42118;SDS011;27783;42.782;23.274;2023-05-02T12:20:50;1.27;;;1.10;;
42118;SDS011;27783;42.782;23.274;2023-05-02T12:23:16;2.10;;;1.10;;
42118;SDS011;27783;42.782;23.274;2023-05-02T12:25:44;1.35;;;1.20;;
42118;SDS011;27783;42.782;23.274;2023-05-02T12:28:10;1.23;;;0.90;;
42118;SDS011;27783;42.782;23.274;2023-05-02T12:30:37;2.28;;;1.08;;
42118;SDS011;27783;42.782;23.274;2023-05-02T12:33:04;2.90;;;1.10;;
42118;SDS011;27783;42.782;23.274;2023-05-02T12:35:30;2.60;;;1.25;;
42118;SDS011;27783;42.782;23.274;2023-05-02T12:40:52;1.85;;;1.00;;
42118;SDS011;27783;42.782;23.274;2023-05-02T12:43:21;1.20;;;0.80;;
42118;SDS011;27783;42.782;23.274;2023-05-02T12:45:47;4.05;;;1.23;;
42118;SDS011;27783;42.782;23.274;2023-05-02T12:50:52;1.80;;;1.00;;
42118;SDS011;27783;42.782;23.274;2023-05-02T12:53:40;1.20;;;0.70;;
42118;SDS011;27783;42.782;23.274;2023-05-02T12:56:08;2.30;;;1.65;;
42118;SDS011;27783;42.782;23.274;2023-05-02T12:58:47;3.03;;;1.13;;
42118;SDS011;27783;42.782;23.274;2023-05-02T13:01:13;1.55;;;1.02;;
42118;SDS011;27783;42.782;23.274;2023-05-02T13:03:40;1.98;;;1.23;;
42118;SDS011;27783;42.782;23.274;2023-05-02T13:06:06;0.77;;;0.75;;
42118;SDS011;27783;42.782;23.274;2023-05-02T13:08:32;3.08;;;1.20;;
42118;SDS011;27783;42.782;23.274;2023-05-02T13:10:58;1.27;;;0.93;;
42118;SDS011;27783;42.782;23.274;2023-05-02T13:13:24;3.15;;;1.17;;
42118;SDS011;27783;42.782;23.274;2023-05-02T13:15:49;3.72;;;1.20;;
42118;SDS011;27783;42.782;23.274;2023-05-02T13:18:15;2.63;;;1.15;;
42118;SDS011;27783;42.782;23.274;2023-05-02T13:20:40;1.13;;;0.98;;
42118;SDS011;27783;42.782;23.274;2023-05-02T13:23:05;1.17;;;1.05;;
42118;SDS011;27783;42.782;23.274;2023-05-02T13:25:31;1.88;;;0.90;;
42118;SDS011;27783;42.782;23.274;2023-05-02T13:27:56;2.00;;;1.10;;
42118;SDS011;27783;42.782;23.274;2023-05-02T13:30:22;1.45;;;0.80;;
42118;SDS011;27783;42.782;23.274;2023-05-02T13:32:48;2.83;;;0.90;;
42118;SDS011;27783;42.782;23.274;2023-05-02T13:35:13;1.38;;;0.80;;
42118;SDS011;27783;42.782;23.274;2023-05-02T13:37:40;3.85;;;1.33;;
42118;SDS011;27783;42.782;23.274;2023-05-02T13:40:06;2.63;;;1.00;;
42118;SDS011;27783;42.782;23.274;2023-05-02T13:42:32;4.25;;;1.17;;
42118;SDS011;27783;42.782;23.274;2023-05-02T13:44:58;3.95;;;0.98;;
42118;SDS011;27783;42.782;23.274;2023-05-02T13:47:24;1.45;;;1.00;;
42118;SDS011;27783;42.782;23.274;2023-05-02T13:49:50;1.25;;;0.88;;
42118;SDS011;27783;42.782;23.274;2023-05-02T13:52:16;2.47;;;0.90;;
42118;SDS011;27783;42.782;23.274;2023-05-02T13:54:42;2.35;;;0.80;;
42118;SDS011;27783;42.782;23.274;2023-05-02T13:57:07;2.15;;;1.17;;
42118;SDS011;27783;42.782;23.274;2023-05-02T13:59:33;1.92;;;0.70;;
42118;SDS011;27783;42.782;23.274;2023-05-02T14:01:58;4.53;;;0.73;;
42118;SDS011;27783;42.782;23.274;2023-05-02T14:04:24;3.88;;;1.10;;
42118;SDS011;27783;42.782;23.274;2023-05-02T14:06:49;0.75;;;0.70;;
42118;SDS011;27783;42.782;23.274;2023-05-02T14:09:15;2.15;;;0.80;;
42118;SDS011;27783;42.782;23.274;2023-05-02T14:11:41;3.67;;;0.90;;
42118;SDS011;27783;42.782;23.274;2023-05-02T14:14:08;5.07;;;0.90;;
42118;SDS011;27783;42.782;23.274;2023-05-02T14:19:02;2.50;;;1.00;;
42118;SDS011;27783;42.782;23.274;2023-05-02T14:21:27;2.10;;;0.95;;
42118;SDS011;27783;42.782;23.274;2023-05-02T14:23:52;2.00;;;1.17;;
42118;SDS011;27783;42.782;23.274;2023-05-02T14:26:19;2.67;;;0.75;;
42118;SDS011;27783;42.782;23.274;2023-05-02T14:28:45;2.78;;;2.58;;
42118;SDS011;27783;42.782;23.274;2023-05-02T14:31:12;2.20;;;0.90;;
42118;SDS011;27783;42.782;23.274;2023-05-02T14:33:38;2.65;;;0.88;;
42118;SDS011;27783;42.782;23.274;2023-05-02T14:36:04;3.13;;;0.75;;
42118;SDS011;27783;42.782;23.274;2023-05-02T14:38:31;1.23;;;0.75;;
42118;SDS011;27783;42.782;23.274;2023-05-02T14:40:57;1.23;;;0.70;;
42118;SDS011;27783;42.782;23.274;2023-05-02T14:43:23;3.42;;;1.10;;
42118;SDS011;27783;42.782;23.274;2023-05-02T14:45:48;1.33;;;1.10;;
42118;SDS011;27783;42.782;23.274;2023-05-02T14:48:14;2.47;;;1.10;;
42118;SDS011;27783;42.782;23.274;2023-05-02T14:50:41;3.37;;;0.80;;
42118;SDS011;27783;42.782;23.274;2023-05-02T14:53:07;1.65;;;0.80;;
42118;SDS011;27783;42.782;23.274;2023-05-02T14:55:37;2.30;;;0.80;;
42118;SDS011;27783;42.782;23.274;2023-05-02T14:58:06;2.30;;;1.00;;
42118;SDS011;27783;42.782;23.274;2023-05-02T15:00:33;0.80;;;0.60;;
42118;SDS011;27783;42.782;23.274;2023-05-02T15:03:00;0.88;;;0.60;;
42118;SDS011;27783;42.782;23.274;2023-05-02T15:05:26;2.53;;;0.85;;
42118;SDS011;27783;42.782;23.274;2023-05-02T15:07:51;1.42;;;0.80;;
42118;SDS011;27783;42.782;23.274;2023-05-02T15:10:17;2.22;;;0.70;;
42118;SDS011;27783;42.782;23.274;2023-05-02T15:12:42;1.52;;;0.80;;
42118;SDS011;27783;42.782;23.274;2023-05-02T15:15:09;2.65;;;1.23;;
42118;SDS011;27783;42.782;23.274;2023-05-02T15:17:35;1.88;;;0.88;;
42118;SDS011;27783;42.782;23.274;2023-05-02T15:20:00;1.00;;;0.77;;
42118;SDS011;27783;42.782;23.274;2023-05-02T15:22:25;3.90;;;1.00;;